Sweeney Granite Mountains, California Weather observations

Data are for 10 minute period ending at time listed.
 Day   Time   Solar   Ave.   Ave.  Ave.  Vector  Max.   Baro.   Total    
  of    of     Rad.   Air    Rel.  Wind   Wind   Wind  Press.  Precip.   
Year   Day            Temp.  Hum.  Speed  Dir.   Gust                    
2014   (PST)  Kw/m2    F      %     mph   deg.    mph    mb.     in.     
-------------------------------------------------------------------------
 211    8:10   0.57   86.8    21    6.7   313     9.3   872.9    0.00 
 211    8:20   0.60   87.1    21    6.5   323     9.2   872.9    0.00 
 211    8:30   0.64   87.9    21    4.5   317     7.5   872.9    0.00 
 211    8:40   0.67   89.7    20    2.4   319     5.7   873.0    0.00 
 211    8:50   0.70   89.6    20    4.6   286     8.1   873.0    0.00 
 211    9:00   0.73   89.8    21    4.7   254     9.5   873.0    0.00 
 211    9:10   0.75   89.7    21    4.4   272     9.4   873.1    0.00 
 211    9:20   0.78   90.1    21    3.2   268     9.7   873.1    0.00 
 211    9:30   0.80   91.3    20    2.6   267     5.5   873.1    0.00 
 211    9:40   0.83   91.3    20    3.6   246     8.1   873.0    0.00 
 211    9:50   0.85   91.1    20    6.3    95    11.0   873.0    0.00 
 211   10:00   0.87   90.8    20    6.0    51    12.7   873.0    0.00 
 211   10:10   0.89   90.7    20    3.3     6     9.8   873.0    0.00 
 211   10:20   0.91   92.3    18    4.7   224     9.1   872.9    0.00 
 211   10:30   0.92   91.6    18    4.8   200     8.3   872.9    0.00 
 211   10:40   0.94   92.9    17    4.3   212     9.4   872.7    0.00 
 211   10:50   0.95   92.9    18    2.7    47     9.7   872.6    0.00 
 211   11:00   0.96   92.3    18    5.9   134    10.6   872.6    0.00 
 211   11:10   0.96   92.1    19    6.1   162    11.4   872.5    0.00 
 211   11:20   0.98   91.7    19    6.8   173    14.6   872.4    0.00 
 211   11:30   0.97   92.6    18    6.1   203    11.1   872.4    0.00 
 211   11:40   0.98   92.5    18    8.2   220    14.9   872.3    0.00 
 211   11:50   0.98   92.6    18    3.4   162     9.6   872.4    0.00 
 211   12:00   0.98   92.9    18    6.3    95    13.7   872.3    0.00 
 211   12:10   0.98   93.3    18    7.3   137    21.0   872.1    0.00 
 211   12:20   0.98   92.7    18   10.7   326    19.6   872.1    0.00 
 211   12:30   0.96   92.8    18    5.5   315    12.2   872.1    0.00 
 211   12:40   0.98   93.5    18    6.8   301    13.2   872.1    0.00 
 211   12:50   0.97   92.6    18    5.4   349    11.8   872.0    0.00 
 211   13:00   0.95   92.9    18    8.4   320    14.0   872.0    0.00 
 211   13:10   0.94   93.8    18    3.5   204    10.7   871.8    0.00 
 211   13:20   0.93   94.6    17    4.7   328    13.8   871.8    0.00 
 211   13:30   0.91   94.6    17    6.7   241    12.2   871.6    0.00 
 211   13:40   0.90   94.0    17    5.5   284    17.3   871.6    0.00 
 211   13:50   0.88   94.1    17    6.7   324    12.4   871.5    0.00 
 211   14:00   0.87   95.1    16    6.9   284    15.9   871.4    0.00 
 211   14:10   0.84   94.6    16    5.7   283    12.4   871.2    0.00 
 211   14:20   0.82   94.4    16    4.5   163    12.1   871.2    0.00 
 211   14:30   0.80   95.6    15    4.6    94    14.7   871.0    0.00 
 211   14:40   0.77   95.4    15    5.8   257    16.0   870.8    0.00 
 211   14:50   0.75   97.2    14    6.1   281    14.8   870.8    0.00 
 211   15:00   0.73   96.0    15    8.0   248    17.4   870.7    0.00 
 211   15:10   0.68   94.3    15    7.7   308    16.0   870.7    0.00 
 211   15:20   0.63   95.1    15    6.0   252    12.3   870.6    0.00 
 211   15:30   0.58   95.6    15    8.2   290    13.4   870.6    0.00 
 211   15:40   0.57   95.2    15    5.6   273    12.1   870.6    0.00 
 211   15:50   0.56   95.3    15    5.0   252    10.8   870.6    0.00 
 211   16:00   0.53   95.1    15    6.4   269    12.3   870.5    0.00 
 211   16:10   0.50   95.1    15    5.4   274    11.7   870.5    0.00 
 211   16:20   0.46   95.5    14    6.4   288    12.1   870.5    0.00 
 211   16:30   0.40   94.6    15    8.1   292    13.1   870.4    0.00 
 211   16:40   0.38   94.9    14    5.0   279    13.5   870.3    0.00 
 211   16:50   0.35   94.5    14    7.9   297    13.5   870.3    0.00 
 211   17:00   0.32   94.9    14    5.0   285     9.2   870.2    0.00 
 211   17:10   0.28   94.9    14    5.5   311    11.0   870.2    0.00 
 211   17:20   0.24   93.9    15    8.4   282    14.6   870.2    0.00 
 211   17:30   0.21   93.1    16    7.8   299    14.2   870.2    0.00 
 211   17:40   0.17   92.8    16    8.7   297    13.7   870.3    0.00 
 211   17:50   0.09   91.9    16    9.4   300    17.6   870.3    0.00 
 211   18:00   0.02   90.4    17    8.6   287    16.7   870.4    0.00 
 211   18:10   0.01   90.0    17    7.9   280    12.3   870.5    0.00 
 211   18:20   0.01   89.8    18    7.9   287    12.9   870.5    0.00 
 211   18:30   0.01   89.7    18    9.5   294    16.1   870.6    0.00 
 211   18:40   0.00   89.4    18    8.1   306    13.7   870.7    0.00 
 211   18:50   0.00   89.3    18    6.8   289    14.3   870.7    0.00 
 211   19:00   0.00   89.3    18    6.7   294    14.8   870.8    0.00 
 211   19:10   0.00   89.2    18    6.9   290    16.1   870.9    0.00 
 211   19:20   0.00   89.0    18    9.1   291    14.8   871.0    0.00 
 211   19:30   0.00   88.9    18    6.7   273    16.3   871.0    0.00 
 211   19:40   0.00   88.8    18    7.8   288    17.1   871.0    0.00 
 211   19:50   0.00   88.5    18    8.5   298    18.5   871.0    0.00 
 211   20:00   0.00   88.7    18    9.3   285    22.6   871.2    0.00 
 211   20:10   0.00   88.2    19   13.2   286    22.9   871.3    0.00 
 211   20:20   0.00   86.9    22   12.9   292    27.8   871.5    0.00 
 211   20:30   0.00   85.7    24    8.8   302    20.4   871.7    0.00 
 211   20:40   0.00   85.1    25   11.9   315    21.9   871.8    0.00 
 211   20:50   0.00   84.9    25    9.8   321    20.0   871.8    0.00 
 211   21:00   0.00   84.9    24   11.8   322    22.4   871.9    0.00 
 211   21:10   0.00   84.9    24   10.8   314    21.4   871.9    0.00 
 211   21:20   0.00   84.8    24   10.1   290    21.8   871.8    0.00 
 211   21:30   0.00   84.7    24    8.9   307    20.2   871.9    0.00 
 211   21:40   0.00   84.6    24    9.1   306    17.1   872.0    0.00 
 211   21:50   0.00   84.3    24   10.0   304    19.3   872.1    0.00 
 211   22:00   0.00   84.1    24    9.9   310    18.0   872.1    0.00 
 211   22:10   0.00   83.9    25    9.7   331    15.1   872.1    0.00 
 211   22:20   0.00   83.7    25   11.3   327    19.4   872.1    0.00 
 211   22:30   0.00   83.4    25   12.7   319    18.6   872.1    0.00 
 211   22:40   0.00   83.4    25   10.3   328    15.7   872.1    0.00 
 211   22:50   0.00   83.3    25   11.1   322    16.9   871.9    0.00 
 211   23:00   0.00   83.5    25   12.1   330    17.0   871.9    0.00 
 211   23:10   0.00   83.4    25   12.9   334    18.2   871.9    0.00 
 211   23:20   0.00   83.2    25   13.8   324    19.7   871.9    0.00 
 211   23:30   0.00   83.1    25   14.0   320    20.3   871.8    0.00 
 211   23:40   0.00   83.0    26   12.8   323    18.0   871.8    0.00 
 211   23:50   0.00   82.9    26   12.8   324    17.2   871.8    0.00 
 212    0:00   0.00   82.9    26   13.8   322    18.5   871.8    0.00 
 212    0:10   0.00   82.8    26   13.1   324    18.0   871.8    0.00 
 212    0:20   0.00   83.0    26   13.6   315    19.4   871.9    0.00 
 212    0:30   0.00   83.3    25   13.3   314    18.9   871.8    0.00 
 212    0:40   0.00   83.5    25   12.3   326    18.6   871.8    0.00 
 212    0:50   0.00   83.4    25   11.5   324    17.5   871.8    0.00 
 212    1:00   0.00   83.4    25   12.0   322    18.9   871.7    0.00 
 212    1:10   0.00   83.5    25   13.5   320    19.2   871.6    0.00 
 212    1:20   0.00   83.4    25   10.7   327    19.1   871.6    0.00 
 212    1:30   0.00   83.0    25   12.6   324    22.3   871.5    0.00 
 212    1:40   0.00   83.0    25   13.3   324    20.3   871.5    0.00 
 212    1:50   0.00   82.9    26   12.4   326    18.0   871.5    0.00 
 212    2:00   0.00   82.7    26   12.3   322    20.5   871.4    0.00 
 212    2:10   0.00   82.5    26   16.3   318    22.3   871.3    0.00 
 212    2:20   0.00   82.3    26   15.2   319    21.0   871.3    0.00 
 212    2:30   0.00   81.8    26   14.8   317    21.0   871.3    0.00 
 212    2:40   0.00   81.4    27   16.5   317    21.6   871.3    0.00 
 212    2:50   0.00   81.1    27   16.9   316    22.6   871.3    0.00 
 212    3:00   0.00   81.1    27   16.4   311    22.2   871.3    0.00 
 212    3:10   0.00   81.2    27   17.2   306    25.0   871.3    0.00 
 212    3:20   0.00   81.3    27   18.5   306    23.6   871.3    0.00 
 212    3:30   0.00   81.2    27   18.1   305    24.6   871.3    0.00 
 212    3:40   0.00   81.4    27   18.3   305    23.8   871.3    0.00 
 212    3:50   0.00   81.4    27   16.6   302    22.2   871.4    0.00 
 212    4:00   0.00   81.3    26   12.2   301    18.2   871.6    0.00 
 212    4:10   0.00   81.2    26    9.4   311    14.8   871.6    0.00 
 212    4:20   0.00   81.3    26    8.5   317    15.4   871.6    0.00 
 212    4:30   0.00   81.1    27   12.5   305    17.8   871.6    0.00 
 212    4:40   0.00   80.8    27   13.1   308    18.3   871.6    0.00 
 212    4:50   0.00   81.0    27   13.2   311    18.7   871.6    0.00 
 212    5:00   0.00   80.8    27   12.7   315    17.5   871.7    0.00 
 212    5:10   0.00   80.6    27   13.5   311    18.6   871.8    0.00 
 212    5:20   0.00   80.8    27   13.5   311    18.3   871.7    0.00 
 212    5:30   0.01   80.7    27   15.2   312    20.0   871.7    0.00 
 212    5:40   0.02   80.9    27   13.0   314    18.6   871.8    0.00 
 212    5:50   0.06   81.2    27   12.9   307    18.3   871.7    0.00 
 212    6:00   0.12   81.8    26   13.2   310    18.9   871.8    0.00 
 212    6:10   0.15   82.3    26   13.1   307    18.3   871.9    0.00 
 212    6:20   0.19   82.8    25   13.5   301    18.4   872.1    0.00 
 212    6:30   0.23   83.7    25   12.9   297    17.0   872.2    0.00 
 212    6:40   0.26   84.5    24   10.3   293    14.5   872.3    0.00 
 212    6:50   0.29   85.2    24    8.2   302    11.8   872.3    0.00 
 212    7:00   0.33   85.6    23    8.8   306    13.2   872.2    0.00 
 212    7:10   0.36   86.0    23    8.9   311    13.6   872.3    0.00 
 212    7:20   0.40   86.2    23    8.8   308    13.2   872.3    0.00 
 212    7:30   0.43   86.5    22    8.0   316    13.9   872.3    0.00 
 212    7:40   0.47   86.7    22    8.9   321    14.9   872.3    0.00 
 212    7:50   0.51   87.3    22    8.7   316    14.5   872.3    0.00 
 212    8:00   0.54   87.6    22    8.6   311    14.7   872.3    0.00 

Return to Sweeney Granite Mountains graphs page.


Western Regional Climate Center,wrcc@dri.edu